Time,TemperatureF,DewpointF,PressureIn,WindDirection,WindDirectionDegrees,WindSpeedMPH,WindSpeedGustMPH,Humidity,HourlyPrecipIn,Conditions,Clouds,dailyrainin,SoftwareType,DateUTC
2013-03-23 00:12:00,33.6,28.4,29.67,SW,225,0.0,-999.0,81,-99.99,,,0.00,Acu-Link.com,2013-03-23 04:12:00,
2013-03-23 00:27:00,33.3,28.1,29.69,West,270,0.0,-999.0,81,-99.99,,,0.00,Acu-Link.com,2013-03-23 04:27:00,
2013-03-23 00:43:00,32.9,28.0,29.69,WSW,247,0.0,-999.0,82,-99.99,,,0.00,Acu-Link.com,2013-03-23 04:43:00,
2013-03-23 00:58:00,32.9,28.3,29.68,West,270,2.7,-999.0,83,-99.99,,,0.00,Acu-Link.com,2013-03-23 04:58:00,
2013-03-23 01:13:00,32.7,28.1,29.68,SW,225,0.0,-999.0,83,-99.99,,,0.00,Acu-Link.com,2013-03-23 05:13:00,
2013-03-23 01:28:00,32.5,27.6,29.67,West,270,0.0,-999.0,82,-99.99,,,0.00,Acu-Link.com,2013-03-23 05:28:00,
2013-03-23 01:43:00,32.2,27.9,29.68,West,270,0.0,-999.0,84,-99.99,,,0.00,Acu-Link.com,2013-03-23 05:43:00,
2013-03-23 01:59:00,32.2,27.3,29.66,West,270,0.0,-999.0,82,-99.99,,,0.00,Acu-Link.com,2013-03-23 05:59:00,
2013-03-23 02:14:00,32.0,26.8,29.67,West,270,0.0,-999.0,81,-99.99,,,0.00,Acu-Link.com,2013-03-23 06:14:00,
2013-03-23 02:29:00,31.8,26.9,29.67,West,270,0.0,-999.0,82,-99.99,,,0.00,Acu-Link.com,2013-03-23 06:29:00,
2013-03-23 02:45:00,31.6,26.7,29.66,WSW,247,3.7,-999.0,82,-99.99,,,0.00,Acu-Link.com,2013-03-23 06:45:00,
2013-03-23 03:00:00,31.3,26.7,29.67,SW,225,0.0,-999.0,83,-99.99,,,0.00,Acu-Link.com,2013-03-23 07:00:00,
2013-03-23 03:15:00,30.9,26.9,29.65,West,270,0.0,-999.0,85,-99.99,,,0.00,Acu-Link.com,2013-03-23 07:15:00,
2013-03-23 03:31:00,30.6,26.9,29.66,SW,225,0.0,-999.0,86,-99.99,,,0.00,Acu-Link.com,2013-03-23 07:31:00,
2013-03-23 04:01:00,30.9,27.5,29.66,West,270,0.0,-999.0,87,-99.99,,,0.00,Acu-Link.com,2013-03-23 08:01:00,
2013-03-23 04:16:00,30.7,27.0,29.66,WSW,247,3.2,-999.0,86,-99.99,,,0.00,Acu-Link.com,2013-03-23 08:16:00,
2013-03-23 04:31:00,30.4,27.0,29.66,West,270,0.0,-999.0,87,-99.99,,,0.00,Acu-Link.com,2013-03-23 08:31:00,
2013-03-23 04:47:00,30.7,27.0,29.66,WSW,247,0.0,-999.0,86,-99.99,,,0.00,Acu-Link.com,2013-03-23 08:47:00,
2013-03-23 05:02:00,30.7,27.0,29.65,West,270,0.0,-999.0,86,-99.99,,,0.00,Acu-Link.com,2013-03-23 09:02:00,
2013-03-23 05:17:00,30.7,26.7,29.66,WSW,247,0.0,-999.0,85,-99.99,,,0.00,Acu-Link.com,2013-03-23 09:17:00,
2013-03-23 05:32:00,30.6,27.2,29.66,WSW,247,0.0,-999.0,87,-99.99,,,0.00,Acu-Link.com,2013-03-23 09:32:00,
2013-03-23 05:48:00,30.7,27.0,29.68,West,270,0.0,-999.0,86,-99.99,,,0.00,Acu-Link.com,2013-03-23 09:48:00,
2013-03-23 06:03:00,31.1,27.4,29.66,West,270,5.8,-999.0,86,-99.99,,,0.00,Acu-Link.com,2013-03-23 10:03:00,
2013-03-23 06:18:00,31.3,27.3,29.66,West,270,0.0,-999.0,85,-99.99,,,0.00,Acu-Link.com,2013-03-23 10:18:00,
2013-03-23 06:34:00,31.3,27.3,29.65,South,180,0.0,-999.0,85,-99.99,,,0.00,Acu-Link.com,2013-03-23 10:34:00,
2013-03-23 06:49:00,31.3,27.3,29.67,WSW,247,0.0,-999.0,85,-99.99,,,0.00,Acu-Link.com,2013-03-23 10:49:00,
2013-03-23 07:04:00,30.7,27.0,29.65,West,270,0.0,-999.0,86,-99.99,,,0.00,Acu-Link.com,2013-03-23 11:04:00,
2013-03-23 07:19:00,30.6,27.2,29.67,SW,225,0.0,-999.0,87,-99.99,,,0.00,Acu-Link.com,2013-03-23 11:19:00,
2013-03-23 07:35:00,30.4,27.3,29.68,SSW,202,0.0,-999.0,88,-99.99,,,0.00,Acu-Link.com,2013-03-23 11:35:00,
2013-03-23 07:50:00,31.8,27.2,29.66,West,270,0.0,-999.0,83,-99.99,,,0.00,Acu-Link.com,2013-03-23 11:50:00,
2013-03-23 08:05:00,32.4,27.5,29.67,West,270,0.0,-999.0,82,-99.99,,,0.00,Acu-Link.com,2013-03-23 12:05:00,
2013-03-23 08:20:00,33.1,27.6,29.66,West,270,0.0,-999.0,80,-99.99,,,0.00,Acu-Link.com,2013-03-23 12:20:00,
2013-03-23 09:06:00,35.6,28.1,29.65,WSW,247,0.0,-999.0,74,-99.99,,,0.00,Acu-Link.com,2013-03-23 13:06:00,
2013-03-23 09:22:00,36.5,28.3,29.66,SW,225,0.0,-999.0,72,-99.99,,,0.00,Acu-Link.com,2013-03-23 13:22:00,
2013-03-23 09:37:00,37.0,28.1,29.66,West,270,0.0,-999.0,70,-99.99,,,0.00,Acu-Link.com,2013-03-23 13:37:00,
2013-03-23 09:52:00,37.6,28.7,29.64,SW,225,0.0,-999.0,70,-99.99,,,0.00,Acu-Link.com,2013-03-23 13:52:00,
2013-03-23 10:07:00,37.9,28.7,29.65,WSW,247,0.0,-999.0,69,-99.99,,,0.00,Acu-Link.com,2013-03-23 14:07:00,
2013-03-23 10:23:00,37.2,28.3,29.65,SW,225,0.0,-999.0,70,-99.99,,,0.00,Acu-Link.com,2013-03-23 14:23:00,
2013-03-23 10:38:00,39.6,29.2,29.64,SE,135,0.0,-999.0,66,-99.99,,,0.00,Acu-Link.com,2013-03-23 14:38:00,
2013-03-23 10:53:00,38.7,28.3,29.64,SW,225,1.7,-999.0,66,-99.99,,,0.00,Acu-Link.com,2013-03-23 14:53:00,
2013-03-23 11:08:00,39.4,29.7,29.64,West,270,10.9,-999.0,68,-99.99,,,0.00,Acu-Link.com,2013-03-23 15:08:00,
2013-03-23 11:24:00,39.4,29.7,29.65,West,270,0.0,-999.0,68,-99.99,,,0.00,Acu-Link.com,2013-03-23 15:24:00,
2013-03-23 11:39:00,41.4,30.1,29.64,SSW,202,6.3,-999.0,64,-99.99,,,0.00,Acu-Link.com,2013-03-23 15:39:00,
2013-03-23 11:54:00,40.8,28.8,29.64,West,270,3.7,-999.0,62,-99.99,,,0.00,Acu-Link.com,2013-03-23 15:54:00,
2013-03-23 12:10:00,40.5,28.9,29.64,WSW,247,4.7,-999.0,63,-99.99,,,0.00,Acu-Link.com,2013-03-23 16:10:00,
2013-03-23 12:25:00,41.9,29.8,29.64,West,270,7.3,-999.0,62,-99.99,,,0.00,Acu-Link.com,2013-03-23 16:25:00,
2013-03-23 12:40:00,42.4,29.1,29.64,SW,225,3.7,-999.0,59,-99.99,,,0.00,Acu-Link.com,2013-03-23 16:40:00,
2013-03-23 12:55:00,43.0,29.2,29.62,SW,225,9.4,-999.0,58,-99.99,,,0.00,Acu-Link.com,2013-03-23 16:55:00,
2013-03-23 13:10:00,42.6,28.9,29.63,WSW,247,4.2,-999.0,58,-99.99,,,0.00,Acu-Link.com,2013-03-23 17:10:00,
2013-03-23 13:25:00,41.9,28.2,29.62,WNW,292,7.3,-999.0,58,-99.99,,,0.00,Acu-Link.com,2013-03-23 17:25:00,
2013-03-23 13:40:00,43.5,28.9,29.64,WSW,247,6.3,-999.0,56,-99.99,,,0.00,Acu-Link.com,2013-03-23 17:40:00,
2013-03-23 13:55:00,43.2,27.2,29.63,WSW,247,1.1,-999.0,53,-99.99,,,0.00,Acu-Link.com,2013-03-23 17:55:00,
2013-03-23 14:10:00,43.3,28.2,29.63,WSW,247,12.5,-999.0,55,-99.99,,,0.00,Acu-Link.com,2013-03-23 18:10:00,
2013-03-23 14:26:00,43.5,27.5,29.62,SSW,202,5.3,-999.0,53,-99.99,,,0.00,Acu-Link.com,2013-03-23 18:26:00,
2013-03-23 14:41:00,43.9,27.4,29.60,North,0,0.0,-999.0,52,-99.99,,,0.00,Acu-Link.com,2013-03-23 18:41:00,
2013-03-23 14:56:00,43.9,26.0,29.60,SW,225,7.8,-999.0,49,-99.99,,,0.00,Acu-Link.com,2013-03-23 18:56:00,
2013-03-23 15:11:00,43.3,26.4,29.61,SW,225,4.2,-999.0,51,-99.99,,,0.00,Acu-Link.com,2013-03-23 19:11:00,
2013-03-23 15:27:00,44.6,25.6,29.60,SW,225,7.8,-999.0,47,-99.99,,,0.00,Acu-Link.com,2013-03-23 19:27:00,
2013-03-23 15:42:00,46.2,28.1,29.59,West,270,0.0,-999.0,49,-99.99,,,0.00,Acu-Link.com,2013-03-23 19:42:00,
2013-03-23 15:57:00,45.3,26.8,29.61,SW,225,1.1,-999.0,48,-99.99,,,0.00,Acu-Link.com,2013-03-23 19:57:00,
2013-03-23 16:13:00,44.4,25.4,29.60,East,90,1.1,-999.0,47,-99.99,,,0.00,Acu-Link.com,2013-03-23 20:13:00,
2013-03-23 16:28:00,44.8,25.8,29.60,WSW,247,1.7,-999.0,47,-99.99,,,0.00,Acu-Link.com,2013-03-23 20:28:00,
2013-03-23 16:43:00,44.6,25.6,29.60,West,270,0.0,-999.0,47,-99.99,,,0.00,Acu-Link.com,2013-03-23 20:43:00,
2013-03-23 16:59:00,44.2,24.7,29.60,SW,225,0.0,-999.0,46,-99.99,,,0.00,Acu-Link.com,2013-03-23 20:59:00,
2013-03-23 17:14:00,44.1,24.7,29.60,West,270,6.8,-999.0,46,-99.99,,,0.00,Acu-Link.com,2013-03-23 21:14:00,
2013-03-23 17:29:00,44.2,24.2,29.61,West,270,9.9,-999.0,45,-99.99,,,0.00,Acu-Link.com,2013-03-23 21:29:00,
2013-03-23 17:45:00,43.9,24.5,29.62,WSW,247,0.0,-999.0,46,-99.99,,,0.00,Acu-Link.com,2013-03-23 21:45:00,
2013-03-23 18:00:00,42.6,24.3,29.62,West,270,0.0,-999.0,48,-99.99,,,0.00,Acu-Link.com,2013-03-23 22:00:00,
2013-03-23 18:15:00,41.9,24.6,29.62,West,270,8.3,-999.0,50,-99.99,,,0.00,Acu-Link.com,2013-03-23 22:15:00,
2013-03-23 18:31:00,40.6,23.9,29.64,WSW,247,10.9,-999.0,51,-99.99,,,0.00,Acu-Link.com,2013-03-23 22:31:00,
2013-03-23 18:46:00,40.3,25.0,29.63,West,270,2.2,-999.0,54,-99.99,,,0.00,Acu-Link.com,2013-03-23 22:46:00,
2013-03-23 19:01:00,39.6,24.3,29.64,WSW,247,0.0,-999.0,54,-99.99,,,0.00,Acu-Link.com,2013-03-23 23:01:00,
2013-03-23 19:17:00,38.8,25.3,29.65,West,270,0.0,-999.0,58,-99.99,,,0.00,Acu-Link.com,2013-03-23 23:17:00,
2013-03-23 19:47:00,37.8,25.6,29.68,West,270,1.7,-999.0,61,-99.99,,,0.00,Acu-Link.com,2013-03-23 23:47:00,
2013-03-23 20:02:00,37.4,25.6,29.66,West,270,0.0,-999.0,62,-99.99,,,0.00,Acu-Link.com,2013-03-24 00:02:00,
2013-03-23 20:18:00,37.0,24.8,29.66,WNW,292,0.0,-999.0,61,-99.99,,,0.00,Acu-Link.com,2013-03-24 00:18:00,
2013-03-23 20:33:00,37.0,25.2,29.69,WSW,247,0.0,-999.0,62,-99.99,,,0.00,Acu-Link.com,2013-03-24 00:33:00,
2013-03-23 20:48:00,36.7,25.3,29.69,West,270,0.0,-999.0,63,-99.99,,,0.00,Acu-Link.com,2013-03-24 00:48:00,
2013-03-23 21:04:00,36.5,25.1,29.72,WNW,292,0.0,-999.0,63,-99.99,,,0.00,Acu-Link.com,2013-03-24 01:04:00,
2013-03-23 21:19:00,36.1,24.7,29.71,WNW,292,0.0,-999.0,63,-99.99,,,0.00,Acu-Link.com,2013-03-24 01:19:00,
2013-03-23 21:34:00,35.8,24.8,29.72,NE,45,0.0,-999.0,64,-99.99,,,0.00,Acu-Link.com,2013-03-24 01:34:00,
2013-03-23 21:50:00,35.8,23.7,29.72,SW,225,1.7,-999.0,61,-99.99,,,0.00,Acu-Link.com,2013-03-24 01:50:00,
2013-03-23 22:05:00,36.0,23.5,29.71,WSW,247,1.7,-999.0,60,-99.99,,,0.00,Acu-Link.com,2013-03-24 02:05:00,
2013-03-23 22:20:00,35.2,23.5,29.72,NNW,337,2.7,-999.0,62,-99.99,,,0.00,Acu-Link.com,2013-03-24 02:20:00,
2013-03-23 22:35:00,35.2,23.1,29.73,East,90,0.0,-999.0,61,-99.99,,,0.00,Acu-Link.com,2013-03-24 02:35:00,
2013-03-23 22:51:00,34.9,23.6,29.73,West,270,1.7,-999.0,63,-99.99,,,0.00,Acu-Link.com,2013-03-24 02:51:00,
2013-03-23 23:06:00,34.3,23.4,29.73,East,90,0.0,-999.0,64,-99.99,,,0.00,Acu-Link.com,2013-03-24 03:06:00,
2013-03-23 23:21:00,34.0,23.5,29.73,West,270,0.0,-999.0,65,-99.99,,,0.00,Acu-Link.com,2013-03-24 03:21:00,
2013-03-23 23:52:00,32.7,23.0,29.75,SW,225,0.0,-999.0,67,-99.99,,,0.00,Acu-Link.com,2013-03-24 03:52:00,